createdAt,value
2018-05-31T00:00:58.254Z,27.46
2018-05-31T00:02:07.179Z,27.43
2018-05-31T00:03:17.897Z,27.43
2018-05-31T00:04:27.916Z,27.41
2018-05-31T00:05:37.162Z,27.49
2018-05-31T00:06:46.649Z,27.39
2018-05-31T00:07:56.110Z,27.37
2018-05-31T00:09:06.142Z,27.49
2018-05-31T00:10:15.888Z,27.41
2018-05-31T00:11:25.378Z,27.34
2018-05-31T00:12:34.852Z,27.39
2018-05-31T00:13:44.309Z,27.37
2018-05-31T00:14:53.487Z,27.37
2018-05-31T00:16:03.222Z,27.4
2018-05-31T00:17:12.157Z,27.39
2018-05-31T00:18:21.890Z,27.4
2018-05-31T00:19:31.380Z,27.39
2018-05-31T00:20:40.822Z,27.4
2018-05-31T00:21:49.999Z,27.37
2018-05-31T00:22:59.223Z,27.43
2018-05-31T00:24:09.012Z,27.37
2018-05-31T00:25:18.956Z,27.34
2018-05-31T00:26:28.482Z,27.4
2018-05-31T00:27:38.166Z,27.44
2018-05-31T00:28:47.640Z,27.4
2018-05-31T00:29:57.618Z,27.4
2018-05-31T00:31:07.088Z,27.39
2018-05-31T00:32:16.847Z,27.4
2018-05-31T00:33:26.363Z,27.4
2018-05-31T00:34:35.800Z,27.37
2018-05-31T00:35:45.697Z,27.37
2018-05-31T00:36:56.095Z,27.39
2018-05-31T00:38:05.875Z,27.41
2018-05-31T00:39:16.019Z,27.36
2018-05-31T00:40:26.492Z,27.36
2018-05-31T00:41:36.245Z,27.39
2018-05-31T00:42:45.790Z,27.37
2018-05-31T00:43:55.825Z,27.34
2018-05-31T00:45:05.288Z,27.37
2018-05-31T00:46:14.206Z,27.31
2018-05-31T00:47:23.679Z,27.29
2018-05-31T00:48:32.934Z,27.34
2018-05-31T00:49:42.404Z,27.31
2018-05-31T00:50:51.858Z,27.34
2018-05-31T00:52:01.064Z,27.31
2018-05-31T00:53:10.235Z,27.37
2018-05-31T00:54:19.460Z,27.36
2018-05-31T00:55:29.211Z,27.34
2018-05-31T00:56:38.956Z,27.27
2018-05-31T00:57:48.683Z,27.36
2018-05-31T00:58:57.904Z,27.34
2018-05-31T01:00:07.369Z,27.37
2018-05-31T01:01:16.869Z,27.36
2018-05-31T01:02:26.864Z,27.31
2018-05-31T01:03:36.045Z,27.28
2018-05-31T01:04:45.496Z,27.32
2018-05-31T01:05:54.420Z,27.25
2018-05-31T01:07:04.452Z,27.27
2018-05-31T01:08:14.225Z,27.27
2018-05-31T01:09:23.931Z,27.25
2018-05-31T01:10:33.677Z,27.25
2018-05-31T01:11:44.888Z,27.25
2018-05-31T01:12:55.114Z,27.24
2018-05-31T01:14:03.764Z,27.37
2018-05-31T01:15:13.665Z,27.21
2018-05-31T01:16:23.396Z,27.31
2018-05-31T01:17:32.838Z,27.24
2018-05-31T01:18:42.299Z,27.36
2018-05-31T01:19:52.486Z,27.29
2018-05-31T01:21:01.954Z,27.25
2018-05-31T01:22:11.423Z,27.36
2018-05-31T01:23:21.179Z,27.25
2018-05-31T01:24:30.369Z,27.29
2018-05-31T01:25:40.088Z,27.27
2018-05-31T01:26:49.270Z,27.32
2018-05-31T01:27:58.753Z,27.25
2018-05-31T01:29:07.948Z,27.25
2018-05-31T01:30:17.419Z,27.25
2018-05-31T01:31:26.634Z,27.28
2018-05-31T01:32:35.579Z,27.31
2018-05-31T01:33:45.043Z,27.31
2018-05-31T01:34:55.073Z,27.22
2018-05-31T01:36:04.550Z,27.21
2018-05-31T01:37:14.016Z,27.31
2018-05-31T01:38:23.526Z,27.27
2018-05-31T01:39:32.795Z,27.24
2018-05-31T01:40:42.251Z,27.19
2018-05-31T01:41:51.979Z,27.27
2018-05-31T01:43:01.202Z,27.28
2018-05-31T01:44:10.919Z,27.25
2018-05-31T01:45:20.661Z,27.18
2018-05-31T01:46:31.446Z,27.21
2018-05-31T01:47:43.706Z,27.17
2018-05-31T01:48:53.524Z,27.17
2018-05-31T01:50:02.730Z,27.21
2018-05-31T01:51:12.258Z,27.17
2018-05-31T01:52:22.004Z,27.19
2018-05-31T01:53:32.106Z,27.18
2018-05-31T01:54:41.896Z,27.09
2018-05-31T01:55:51.367Z,27.1
2018-05-31T01:57:01.072Z,27.07
2018-05-31T01:58:10.527Z,27.07
2018-05-31T01:59:19.832Z,27.1
2018-05-31T02:00:29.594Z,27.04
2018-05-31T02:01:39.077Z,27.02
2018-05-31T02:02:48.853Z,27.03
2018-05-31T02:03:58.361Z,27
2018-05-31T02:05:07.296Z,27.06
2018-05-31T02:06:17.017Z,26.97
2018-05-31T02:07:26.489Z,27.02
2018-05-31T02:08:36.277Z,27
2018-05-31T02:09:46.025Z,27.06
2018-05-31T02:10:55.213Z,27.02
2018-05-31T02:12:04.667Z,26.97
2018-05-31T02:13:14.395Z,26.94
2018-05-31T02:14:23.876Z,26.95
2018-05-31T02:15:32.844Z,26.94
2018-05-31T02:16:42.025Z,26.97
2018-05-31T02:17:51.519Z,26.94
2018-05-31T02:19:01.290Z,26.94
2018-05-31T02:20:11.788Z,26.91
2018-05-31T02:21:23.511Z,26.92
2018-05-31T02:22:32.839Z,26.94
2018-05-31T02:23:43.115Z,26.87
2018-05-31T02:24:51.768Z,26.85
2018-05-31T02:26:01.528Z,26.81
2018-05-31T02:27:10.725Z,26.82
2018-05-31T02:28:20.183Z,26.84
2018-05-31T02:29:29.659Z,26.81
2018-05-31T02:30:38.844Z,26.89
2018-05-31T02:31:48.593Z,26.87
2018-05-31T02:32:58.049Z,26.84
2018-05-31T02:34:07.493Z,26.82
2018-05-31T02:35:17.037Z,26.85
2018-05-31T02:36:25.972Z,26.85
2018-05-31T02:37:35.423Z,26.82
2018-05-31T02:38:45.163Z,26.82
2018-05-31T02:39:54.111Z,26.84
2018-05-31T02:41:03.896Z,26.85
2018-05-31T02:42:13.385Z,26.87
2018-05-31T02:43:22.309Z,26.87
2018-05-31T02:44:31.529Z,26.85
2018-05-31T02:45:40.736Z,26.85
2018-05-31T02:46:49.416Z,26.8
2018-05-31T02:47:58.879Z,26.87
2018-05-31T02:49:08.064Z,26.73
2018-05-31T02:50:17.768Z,26.84
2018-05-31T02:51:27.234Z,26.75
2018-05-31T02:52:37.254Z,26.75
2018-05-31T02:53:46.497Z,26.75
2018-05-31T02:54:55.949Z,26.73
2018-05-31T02:56:04.864Z,26.82
2018-05-31T02:57:15.166Z,26.73
2018-05-31T02:58:25.106Z,26.8
2018-05-31T02:59:36.691Z,26.77
2018-05-31T03:00:47.134Z,26.8
2018-05-31T03:01:56.894Z,26.8
2018-05-31T03:03:06.082Z,26.84
2018-05-31T03:04:15.287Z,26.82
2018-05-31T03:05:24.480Z,26.81
2018-05-31T03:06:34.215Z,26.8
2018-05-31T03:07:43.783Z,26.73
2018-05-31T03:08:53.073Z,26.72
2018-05-31T03:10:02.807Z,26.69
2018-05-31T03:11:11.746Z,26.76
2018-05-31T03:12:21.480Z,26.7
2018-05-31T03:13:30.702Z,26.72
2018-05-31T03:14:40.165Z,26.67
2018-05-31T03:15:49.658Z,26.73
2018-05-31T03:16:58.585Z,26.7
2018-05-31T03:18:08.631Z,26.7
2018-05-31T03:19:17.567Z,26.75
2018-05-31T03:20:27.282Z,26.76
2018-05-31T03:21:36.757Z,26.73
2018-05-31T03:22:45.950Z,26.73
2018-05-31T03:23:55.713Z,26.7
2018-05-31T03:25:04.652Z,26.73
2018-05-31T03:26:14.131Z,26.65
2018-05-31T03:27:23.574Z,26.69
2018-05-31T03:28:32.764Z,26.76
2018-05-31T03:29:42.468Z,26.76
2018-05-31T03:30:51.944Z,26.65
2018-05-31T03:32:01.942Z,26.73
2018-05-31T03:33:11.703Z,26.58
2018-05-31T03:34:21.200Z,26.69
2018-05-31T03:35:31.498Z,26.67
2018-05-31T03:36:40.692Z,26.62
2018-05-31T03:37:50.918Z,26.65
2018-05-31T03:39:01.659Z,26.65
2018-05-31T03:40:12.128Z,26.67
2018-05-31T03:41:21.038Z,26.66
2018-05-31T03:42:30.490Z,26.63
2018-05-31T03:43:39.931Z,26.66
2018-05-31T03:44:49.101Z,26.72
2018-05-31T03:45:58.297Z,26.63
2018-05-31T03:47:08.041Z,26.65
2018-05-31T03:48:17.508Z,26.63
2018-05-31T03:49:26.966Z,26.6
2018-05-31T03:50:36.693Z,26.62
2018-05-31T03:51:46.139Z,26.63
2018-05-31T03:52:56.187Z,26.66
2018-05-31T03:54:05.673Z,26.69
2018-05-31T03:55:15.409Z,26.67
2018-05-31T03:56:24.600Z,26.7
2018-05-31T03:57:34.057Z,26.69
2018-05-31T03:58:43.535Z,26.66
2018-05-31T03:59:52.709Z,26.63
2018-05-31T04:01:01.623Z,26.7
2018-05-31T04:02:11.080Z,26.67
2018-05-31T04:03:20.533Z,26.6
2018-05-31T04:04:30.525Z,26.67
2018-05-31T04:05:40.508Z,26.67
2018-05-31T04:06:49.693Z,26.65
2018-05-31T04:07:59.192Z,26.58
2018-05-31T04:09:08.912Z,26.65
2018-05-31T04:10:18.627Z,26.62
2018-05-31T04:11:27.819Z,26.67
2018-05-31T04:12:37.313Z,26.66
2018-05-31T04:13:47.708Z,26.62
2018-05-31T04:14:57.388Z,26.57
2018-05-31T04:16:08.083Z,26.6
2018-05-31T04:17:18.214Z,26.63
2018-05-31T04:18:27.673Z,26.65
2018-05-31T04:19:37.157Z,26.67
2018-05-31T04:20:46.855Z,26.62
2018-05-31T04:21:56.852Z,26.6
2018-05-31T04:23:06.053Z,26.66
2018-05-31T04:24:14.969Z,26.63
2018-05-31T04:25:24.693Z,26.6
2018-05-31T04:26:34.167Z,26.67
2018-05-31T04:27:43.354Z,26.66
2018-05-31T04:28:52.547Z,26.62
2018-05-31T04:30:02.267Z,26.57
2018-05-31T04:31:11.460Z,26.63
2018-05-31T04:32:21.244Z,26.65
2018-05-31T04:33:30.699Z,26.6
2018-05-31T04:34:40.762Z,26.63
2018-05-31T04:35:50.567Z,26.66
2018-05-31T04:37:00.050Z,26.66
2018-05-31T04:38:09.488Z,26.63
2018-05-31T04:39:18.671Z,26.55
2018-05-31T04:40:28.127Z,26.66
2018-05-31T04:41:37.033Z,26.65
2018-05-31T04:42:46.475Z,26.65
2018-05-31T04:43:55.656Z,26.6
2018-05-31T04:45:05.368Z,26.63
2018-05-31T04:46:14.308Z,26.6
2018-05-31T04:47:23.759Z,26.7
2018-05-31T04:48:32.927Z,26.76
2018-05-31T04:49:42.380Z,26.67
2018-05-31T04:50:51.302Z,26.67
2018-05-31T04:52:00.237Z,26.62
2018-05-31T04:53:09.957Z,26.66
2018-05-31T04:54:19.287Z,26.66
2018-05-31T04:55:29.322Z,26.77
2018-05-31T04:56:40.007Z,26.65
2018-05-31T04:57:50.209Z,26.69
2018-05-31T04:58:59.941Z,26.6
2018-05-31T05:00:09.119Z,26.67
2018-05-31T05:01:18.810Z,26.67
2018-05-31T05:02:28.772Z,26.7
2018-05-31T05:03:38.235Z,26.72
2018-05-31T05:04:47.963Z,26.7
2018-05-31T05:05:57.688Z,26.66
2018-05-31T05:07:06.881Z,26.67
2018-05-31T05:08:16.341Z,26.72
2018-05-31T05:09:26.077Z,26.8
2018-05-31T05:10:35.006Z,26.7
2018-05-31T05:11:45.003Z,26.72
2018-05-31T05:12:54.745Z,26.73
2018-05-31T05:14:04.494Z,26.73
2018-05-31T05:15:13.949Z,26.8
2018-05-31T05:16:23.139Z,26.72
2018-05-31T05:17:32.614Z,26.7
2018-05-31T05:18:41.820Z,26.72
2018-05-31T05:19:51.013Z,26.8
2018-05-31T05:21:00.485Z,26.7
2018-05-31T05:22:09.486Z,26.67
2018-05-31T05:23:18.398Z,26.77
2018-05-31T05:24:27.867Z,26.81
2018-05-31T05:25:37.061Z,26.75
2018-05-31T05:26:46.227Z,26.75
2018-05-31T05:27:55.421Z,26.75
2018-05-31T05:29:04.873Z,26.75
2018-05-31T05:30:14.871Z,26.8
2018-05-31T05:31:25.412Z,26.8
2018-05-31T05:32:35.692Z,26.72
2018-05-31T05:33:45.400Z,26.8
2018-05-31T05:34:56.057Z,26.84
2018-05-31T05:36:05.527Z,26.73
2018-05-31T05:37:15.280Z,26.81
2018-05-31T05:38:24.748Z,26.8
2018-05-31T05:39:34.202Z,26.8
2018-05-31T05:40:42.856Z,26.77
2018-05-31T05:41:52.352Z,26.72
2018-05-31T05:43:01.798Z,26.8
2018-05-31T05:44:11.269Z,26.76
2018-05-31T05:45:20.445Z,26.77
2018-05-31T05:46:29.908Z,26.8
2018-05-31T05:47:39.416Z,26.76
2018-05-31T05:48:48.582Z,26.82
2018-05-31T05:49:58.074Z,26.77
2018-05-31T05:51:07.543Z,26.84
2018-05-31T05:52:16.996Z,26.85
2018-05-31T05:53:26.464Z,26.77
2018-05-31T05:54:35.916Z,26.82
2018-05-31T05:55:45.397Z,26.84
2018-05-31T05:56:55.408Z,26.82
2018-05-31T05:58:04.869Z,26.82
2018-05-31T05:59:14.329Z,26.87
2018-05-31T06:00:23.555Z,26.85
2018-05-31T06:01:33.010Z,26.87
2018-05-31T06:02:42.744Z,26.84
2018-05-31T06:03:52.213Z,26.87
2018-05-31T06:05:01.948Z,26.82
2018-05-31T06:06:11.140Z,26.82
2018-05-31T06:07:20.626Z,26.87
2018-05-31T06:08:29.844Z,26.89
2018-05-31T06:09:39.302Z,26.85
2018-05-31T06:10:48.990Z,26.85
2018-05-31T06:11:58.453Z,26.82
2018-05-31T06:13:07.695Z,26.81
2018-05-31T06:14:17.392Z,26.85
2018-05-31T06:15:28.376Z,26.82
2018-05-31T06:16:38.627Z,26.88
2018-05-31T06:17:48.083Z,26.89
2018-05-31T06:18:58.103Z,26.84
2018-05-31T06:20:07.585Z,26.84
2018-05-31T06:21:16.761Z,26.89
2018-05-31T06:22:25.946Z,26.89
2018-05-31T06:23:35.424Z,26.81
2018-05-31T06:24:44.702Z,26.82
2018-05-31T06:25:54.436Z,26.81
2018-05-31T06:27:03.619Z,26.85
2018-05-31T06:28:13.081Z,26.8
2018-05-31T06:29:22.532Z,26.89
2018-05-31T06:30:31.732Z,26.82
2018-05-31T06:31:41.465Z,26.82
2018-05-31T06:32:50.371Z,26.87
2018-05-31T06:33:59.575Z,26.81
2018-05-31T06:35:09.860Z,26.87
2018-05-31T06:36:19.807Z,26.84
2018-05-31T06:37:29.142Z,26.75
2018-05-31T06:38:38.453Z,26.87
2018-05-31T06:39:48.157Z,26.72
2018-05-31T06:40:57.391Z,26.8
2018-05-31T06:42:06.546Z,26.82
2018-05-31T06:43:15.988Z,26.76
2018-05-31T06:44:25.674Z,26.75
2018-05-31T06:45:35.350Z,26.77
2018-05-31T06:46:44.551Z,26.82
2018-05-31T06:47:54.232Z,26.81
2018-05-31T06:49:03.403Z,26.8
2018-05-31T06:50:12.833Z,26.82
2018-05-31T06:51:22.510Z,26.75
2018-05-31T06:52:31.661Z,26.75
2018-05-31T06:53:40.829Z,26.8
2018-05-31T06:54:50.500Z,26.81
2018-05-31T06:55:59.935Z,26.73
2018-05-31T06:57:09.352Z,26.76
2018-05-31T06:58:19.036Z,26.73
2018-05-31T06:59:28.708Z,26.81
2018-05-31T07:00:38.112Z,26.81
2018-05-31T07:01:47.026Z,26.82
2018-05-31T07:02:55.922Z,26.87
2018-05-31T07:04:05.349Z,26.8
2018-05-31T07:05:14.520Z,26.85
2018-05-31T07:06:24.210Z,26.8
2018-05-31T07:07:33.637Z,26.87
2018-05-31T07:08:43.335Z,26.87
2018-05-31T07:09:52.751Z,26.87
2018-05-31T07:11:01.945Z,26.8
2018-05-31T07:12:11.655Z,26.88
2018-05-31T07:13:21.616Z,26.84
2018-05-31T07:14:30.814Z,26.87
2018-05-31T07:15:40.750Z,26.82
2018-05-31T07:16:49.655Z,26.84
2018-05-31T07:17:58.947Z,26.81
2018-05-31T07:19:08.141Z,26.85
2018-05-31T07:20:17.892Z,26.85
2018-05-31T07:21:27.152Z,26.81
2018-05-31T07:22:36.430Z,26.87
2018-05-31T07:23:45.874Z,26.88
2018-05-31T07:24:55.361Z,26.82
2018-05-31T07:26:04.230Z,26.87
2018-05-31T07:27:14.168Z,26.8
2018-05-31T07:28:23.971Z,26.77
2018-05-31T07:29:33.940Z,26.81
2018-05-31T07:30:43.380Z,26.85
2018-05-31T07:31:52.850Z,26.81
2018-05-31T07:33:02.073Z,26.8
2018-05-31T07:34:11.241Z,26.77
2018-05-31T07:35:20.411Z,26.82
2018-05-31T07:36:29.322Z,26.85
2018-05-31T07:37:38.778Z,26.92
2018-05-31T07:38:48.556Z,26.87
2018-05-31T07:39:57.725Z,26.85
2018-05-31T07:41:06.900Z,26.8
2018-05-31T07:42:16.621Z,26.84
2018-05-31T07:43:26.107Z,26.82
2018-05-31T07:44:35.286Z,26.84
2018-05-31T07:45:44.973Z,26.82
2018-05-31T07:46:54.914Z,26.8
2018-05-31T07:48:04.321Z,26.81
2018-05-31T07:49:14.017Z,26.81
2018-05-31T07:50:23.978Z,26.87
2018-05-31T07:51:33.592Z,26.82
2018-05-31T07:52:42.546Z,26.92
2018-05-31T07:53:52.284Z,26.95
2018-05-31T07:55:01.210Z,26.94
2018-05-31T07:56:10.695Z,27
2018-05-31T07:57:20.118Z,26.95
2018-05-31T07:58:29.539Z,26.94
2018-05-31T07:59:38.971Z,26.97
2018-05-31T08:00:48.143Z,26.97
2018-05-31T08:01:57.570Z,26.99
2018-05-31T08:03:07.272Z,26.97
2018-05-31T08:04:15.927Z,26.92
2018-05-31T08:05:25.873Z,27
2018-05-31T08:06:34.770Z,26.97
2018-05-31T08:07:43.941Z,27
2018-05-31T08:08:53.117Z,26.95
2018-05-31T08:10:02.282Z,26.97
2018-05-31T08:11:12.469Z,26.97
2018-05-31T08:12:21.950Z,26.95
2018-05-31T08:13:31.774Z,27
2018-05-31T08:14:41.475Z,26.97
2018-05-31T08:15:50.660Z,27.02
2018-05-31T08:16:59.610Z,27
2018-05-31T08:18:09.564Z,27
2018-05-31T08:19:19.016Z,26.97
2018-05-31T08:20:28.463Z,26.99
2018-05-31T08:21:37.637Z,27.07
2018-05-31T08:22:46.814Z,26.99
2018-05-31T08:23:56.532Z,26.95
2018-05-31T08:25:06.230Z,27.03
2018-05-31T08:26:15.928Z,27.04
2018-05-31T08:27:25.369Z,27.06
2018-05-31T08:28:35.071Z,27.13
2018-05-31T08:29:44.267Z,27.04
2018-05-31T08:30:53.705Z,27.04
2018-05-31T08:32:03.176Z,27.07
2018-05-31T08:33:12.631Z,27.03
2018-05-31T08:34:21.800Z,27.06
2018-05-31T08:35:30.973Z,27.02
2018-05-31T08:36:40.642Z,27.02
2018-05-31T08:37:50.063Z,27.06
2018-05-31T08:38:59.633Z,27.04
2018-05-31T08:40:08.822Z,27.14
2018-05-31T08:41:18.763Z,27.04
2018-05-31T08:42:28.181Z,27.02
2018-05-31T08:43:37.627Z,26.97
2018-05-31T08:44:47.076Z,27.06
2018-05-31T08:45:56.233Z,27.12
2018-05-31T08:47:05.914Z,27.06
2018-05-31T08:48:15.088Z,27.04
2018-05-31T08:49:24.516Z,27.09
2018-05-31T08:50:33.945Z,27.03
2018-05-31T08:51:43.898Z,27.12
2018-05-31T08:52:55.499Z,27.03
2018-05-31T08:54:05.476Z,27.12
2018-05-31T08:55:15.671Z,27.07
2018-05-31T08:56:25.362Z,27.03
2018-05-31T08:57:35.050Z,27.06
2018-05-31T08:58:44.239Z,27.06
2018-05-31T08:59:53.666Z,27.02
2018-05-31T09:01:02.837Z,27.1
2018-05-31T09:02:12.588Z,27.07
2018-05-31T09:03:22.031Z,27.1
2018-05-31T09:04:31.731Z,27.12
2018-05-31T09:05:40.893Z,27.06
2018-05-31T09:06:50.591Z,27.1
2018-05-31T09:08:00.019Z,27.07
2018-05-31T09:09:09.983Z,27.07
2018-05-31T09:10:19.437Z,27.1
2018-05-31T09:11:28.864Z,27.1
2018-05-31T09:12:38.553Z,27.09
2018-05-31T09:13:47.978Z,27.21
2018-05-31T09:14:57.146Z,27.14
2018-05-31T09:16:06.567Z,27.13
2018-05-31T09:17:15.803Z,27.17
2018-05-31T09:18:25.254Z,27.19
2018-05-31T09:19:34.700Z,27.22
2018-05-31T09:20:44.571Z,27.12
2018-05-31T09:21:54.501Z,27.14
2018-05-31T09:23:03.933Z,27.18
2018-05-31T09:24:13.629Z,27.14
2018-05-31T09:25:23.068Z,27.19
2018-05-31T09:26:32.809Z,27.29
2018-05-31T09:27:42.804Z,27.17
2018-05-31T09:28:52.229Z,27.25
2018-05-31T09:30:01.405Z,27.24
2018-05-31T09:31:11.317Z,27.24
2018-05-31T09:32:21.181Z,27.24
2018-05-31T09:33:30.173Z,27.31
2018-05-31T09:34:39.596Z,27.21
2018-05-31T09:35:49.296Z,27.29
2018-05-31T09:36:59.246Z,27.22
2018-05-31T09:38:09.824Z,27.19
2018-05-31T09:39:19.558Z,27.24
2018-05-31T09:40:29.275Z,27.29
2018-05-31T09:41:39.147Z,27.24
2018-05-31T09:42:48.299Z,27.19
2018-05-31T09:43:57.989Z,27.18
2018-05-31T09:45:07.161Z,27.31
2018-05-31T09:46:16.721Z,27.27
2018-05-31T09:47:26.762Z,27.34
2018-05-31T09:48:35.742Z,27.27
2018-05-31T09:49:44.737Z,27.34
2018-05-31T09:50:54.479Z,27.28
2018-05-31T09:52:03.930Z,27.19
2018-05-31T09:53:13.360Z,27.24
2018-05-31T09:54:22.801Z,27.36
2018-05-31T09:55:32.777Z,27.34
2018-05-31T09:56:42.722Z,27.22
2018-05-31T09:57:52.147Z,27.21
2018-05-31T09:59:01.593Z,27.32
2018-05-31T10:00:11.035Z,27.29
2018-05-31T10:01:20.218Z,27.22
2018-05-31T10:02:30.182Z,27.25
2018-05-31T10:03:39.868Z,27.25
2018-05-31T10:04:49.068Z,27.22
2018-05-31T10:05:57.970Z,27.24
2018-05-31T10:07:07.691Z,27.24
2018-05-31T10:08:17.147Z,27.29
2018-05-31T10:09:26.344Z,27.21
2018-05-31T10:10:35.791Z,27.34
2018-05-31T10:11:45.562Z,27.27
2018-05-31T10:12:54.489Z,27.21
2018-05-31T10:14:03.923Z,27.24
2018-05-31T10:15:13.088Z,27.22
2018-05-31T10:16:22.527Z,27.25
2018-05-31T10:17:31.699Z,27.37
2018-05-31T10:18:41.381Z,27.22
2018-05-31T10:19:51.081Z,27.36
2018-05-31T10:21:00.538Z,27.27
2018-05-31T10:22:09.967Z,27.17
2018-05-31T10:23:19.611Z,27.25
2018-05-31T10:24:28.764Z,27.27
2018-05-31T10:25:38.192Z,27.25
2018-05-31T10:26:47.356Z,27.34
2018-05-31T10:27:56.257Z,27.36
2018-05-31T10:29:05.180Z,27.25
2018-05-31T10:30:14.369Z,27.25
2018-05-31T10:31:24.112Z,27.36
2018-05-31T10:32:33.306Z,27.22
2018-05-31T10:33:43.556Z,27.32
2018-05-31T10:34:52.727Z,27.36
2018-05-31T10:36:01.947Z,27.37
2018-05-31T10:37:11.684Z,27.32
2018-05-31T10:38:21.148Z,27.37
2018-05-31T10:39:30.447Z,27.37
2018-05-31T10:40:40.260Z,27.32
2018-05-31T10:41:49.282Z,27.34
2018-05-31T10:42:58.900Z,27.32
2018-05-31T10:44:08.407Z,27.36
2018-05-31T10:45:17.406Z,27.41
2018-05-31T10:46:27.304Z,27.43
2018-05-31T10:47:37.027Z,27.29
2018-05-31T10:48:47.000Z,27.39
2018-05-31T10:49:56.413Z,27.37
2018-05-31T10:51:05.838Z,27.41
2018-05-31T10:52:15.015Z,27.39
2018-05-31T10:53:24.439Z,27.39
2018-05-31T10:54:33.637Z,27.37
2018-05-31T10:55:43.123Z,27.4
2018-05-31T10:56:52.552Z,27.44
2018-05-31T10:58:01.723Z,27.43
2018-05-31T10:59:10.668Z,27.39
2018-05-31T11:00:20.676Z,27.36
2018-05-31T11:01:30.133Z,27.32
2018-05-31T11:02:39.587Z,27.39
2018-05-31T11:03:49.028Z,27.41
2018-05-31T11:04:58.249Z,27.39
2018-05-31T11:06:07.688Z,27.41
2018-05-31T11:07:17.137Z,27.36
2018-05-31T11:08:26.827Z,27.39
2018-05-31T11:09:36.610Z,27.41
2018-05-31T11:10:46.320Z,27.41
2018-05-31T11:11:56.004Z,27.39
2018-05-31T11:13:05.434Z,27.39
2018-05-31T11:14:14.074Z,27.32
2018-05-31T11:15:23.540Z,27.31
2018-05-31T11:16:32.949Z,27.37
2018-05-31T11:17:42.172Z,27.39
2018-05-31T11:18:51.629Z,27.34
2018-05-31T11:20:00.782Z,27.36
2018-05-31T11:21:09.936Z,27.36
2018-05-31T11:22:19.604Z,27.28
2018-05-31T11:23:28.771Z,27.39
2018-05-31T11:24:38.204Z,27.4
2018-05-31T11:25:47.608Z,27.32
2018-05-31T11:26:57.034Z,27.34
2018-05-31T11:28:06.460Z,27.39
2018-05-31T11:29:16.265Z,27.36
2018-05-31T11:30:26.059Z,27.34
2018-05-31T11:31:35.227Z,27.32
2018-05-31T11:32:44.648Z,27.37
2018-05-31T11:33:53.564Z,27.32
2018-05-31T11:35:02.999Z,27.4
2018-05-31T11:36:12.691Z,27.37
2018-05-31T11:37:22.106Z,27.31
2018-05-31T11:38:31.034Z,27.29
2018-05-31T11:39:40.474Z,27.29
2018-05-31T11:40:49.623Z,27.31
2018-05-31T11:41:59.304Z,27.34
2018-05-31T11:43:08.751Z,27.32
2018-05-31T11:44:18.174Z,27.28
2018-05-31T11:45:26.812Z,27.29
2018-05-31T11:46:36.263Z,27.39
2018-05-31T11:47:45.457Z,27.41
2018-05-31T11:48:54.631Z,27.32
2018-05-31T11:50:04.107Z,27.34
2018-05-31T11:51:13.009Z,27.32
2018-05-31T11:52:22.175Z,27.36
2018-05-31T11:53:31.598Z,27.31
2018-05-31T11:54:41.289Z,27.36
2018-05-31T11:55:50.468Z,27.39
2018-05-31T11:56:59.383Z,27.31
2018-05-31T11:58:08.543Z,27.32
2018-05-31T11:59:17.734Z,27.31
2018-05-31T12:00:27.790Z,27.4
2018-05-31T12:01:37.537Z,27.29
2018-05-31T12:02:47.629Z,27.41
2018-05-31T12:03:56.821Z,27.4
2018-05-31T12:05:05.784Z,27.36
2018-05-31T12:06:14.945Z,27.32
2018-05-31T12:07:24.385Z,27.37
2018-05-31T12:08:33.799Z,27.34
2018-05-31T12:09:43.259Z,27.37
2018-05-31T12:10:52.572Z,27.39
2018-05-31T12:12:02.443Z,27.31
2018-05-31T12:13:12.182Z,27.36
2018-05-31T12:14:21.110Z,27.34
2018-05-31T12:15:30.013Z,27.29
2018-05-31T12:16:39.721Z,27.47
2018-05-31T12:17:48.925Z,27.37
2018-05-31T12:18:58.092Z,27.31
2018-05-31T12:20:06.992Z,27.27
2018-05-31T12:21:16.426Z,27.39
2018-05-31T12:22:25.328Z,27.37
2018-05-31T12:23:34.520Z,27.32
2018-05-31T12:24:43.930Z,27.37
2018-05-31T12:25:53.628Z,27.36
2018-05-31T12:27:03.309Z,27.29
2018-05-31T12:28:13.257Z,27.37
2018-05-31T12:29:22.175Z,27.34
2018-05-31T12:30:31.849Z,27.41
2018-05-31T12:31:41.844Z,27.4
2018-05-31T12:32:51.305Z,27.36
2018-05-31T12:34:00.713Z,27.41
2018-05-31T12:35:10.403Z,27.39
2018-05-31T12:36:20.099Z,27.36
2018-05-31T12:37:29.840Z,27.31
2018-05-31T12:38:39.300Z,27.37
2018-05-31T12:39:48.965Z,27.4
2018-05-31T12:40:58.164Z,27.39
2018-05-31T12:42:07.621Z,27.32
2018-05-31T12:43:17.345Z,27.43
2018-05-31T12:44:26.779Z,27.4
2018-05-31T12:45:36.458Z,27.4
2018-05-31T12:46:45.603Z,27.39
2018-05-31T12:47:55.032Z,27.37
2018-05-31T12:49:04.212Z,27.4
2018-05-31T12:50:13.664Z,27.4
2018-05-31T12:51:22.823Z,27.34
2018-05-31T12:52:32.002Z,27.41
2018-05-31T12:53:41.478Z,27.37
2018-05-31T12:54:51.400Z,27.41
2018-05-31T12:56:00.853Z,27.41
2018-05-31T12:57:09.786Z,27.39
2018-05-31T12:58:19.213Z,27.4
2018-05-31T12:59:28.362Z,27.4
2018-05-31T13:00:37.790Z,27.43
2018-05-31T13:01:47.499Z,27.36
2018-05-31T13:02:56.926Z,27.43
2018-05-31T13:04:06.621Z,27.44
2018-05-31T13:05:16.059Z,27.36
2018-05-31T13:06:25.739Z,27.39
2018-05-31T13:07:35.404Z,27.34
2018-05-31T13:08:45.094Z,27.39
2018-05-31T13:09:54.279Z,27.4
2018-05-31T13:11:03.959Z,27.41
2018-05-31T13:12:13.156Z,27.44
2018-05-31T13:13:22.063Z,27.46
2018-05-31T13:14:31.229Z,27.34
2018-05-31T13:15:40.640Z,27.43
2018-05-31T13:16:50.322Z,27.44
2018-05-31T13:17:59.485Z,27.49
2018-05-31T13:19:08.932Z,27.46
2018-05-31T13:20:17.861Z,27.49
2018-05-31T13:21:27.024Z,27.51
2018-05-31T13:22:36.202Z,27.43
2018-05-31T13:23:45.934Z,27.46
2018-05-31T13:24:54.850Z,27.51
2018-05-31T13:26:03.764Z,27.51
2018-05-31T13:27:12.920Z,27.47
2018-05-31T13:28:22.349Z,27.44
2018-05-31T13:29:32.031Z,27.55
2018-05-31T13:30:41.513Z,27.43
2018-05-31T13:31:51.203Z,27.55
2018-05-31T13:33:00.366Z,27.46
2018-05-31T13:34:09.811Z,27.51
2018-05-31T13:35:19.242Z,27.47
2018-05-31T13:36:28.927Z,27.49
2018-05-31T13:37:38.627Z,27.5
2018-05-31T13:38:48.046Z,27.6
2018-05-31T13:39:57.975Z,27.55
2018-05-31T13:41:07.148Z,27.59
2018-05-31T13:42:16.598Z,27.51
2018-05-31T13:43:26.266Z,27.5
2018-05-31T13:44:35.713Z,27.5
2018-05-31T13:45:45.122Z,27.55
2018-05-31T13:46:54.342Z,27.57
2018-05-31T13:48:03.274Z,27.62
2018-05-31T13:49:12.469Z,27.62
2018-05-31T13:50:21.904Z,27.65
2018-05-31T13:51:31.081Z,27.55
2018-05-31T13:52:40.756Z,27.55
2018-05-31T13:53:49.923Z,27.66
2018-05-31T13:54:59.363Z,27.63
2018-05-31T13:56:08.282Z,27.63
2018-05-31T13:57:17.446Z,27.63
2018-05-31T13:58:27.395Z,27.72
2018-05-31T13:59:36.818Z,27.6
2018-05-31T14:00:45.733Z,27.67
2018-05-31T14:01:54.673Z,27.72
2018-05-31T14:03:05.063Z,27.74
2018-05-31T14:04:14.262Z,27.66
2018-05-31T14:05:23.975Z,27.69
2018-05-31T14:06:33.665Z,27.69
2018-05-31T14:07:42.600Z,27.75
2018-05-31T14:08:52.029Z,27.69
2018-05-31T14:10:01.701Z,27.78
2018-05-31T14:11:10.858Z,27.74
2018-05-31T14:12:20.871Z,27.72
2018-05-31T14:13:30.328Z,27.75
2018-05-31T14:14:39.756Z,27.84
2018-05-31T14:15:48.937Z,27.79
2018-05-31T14:16:58.644Z,27.79
2018-05-31T14:18:07.837Z,27.75
2018-05-31T14:19:16.823Z,27.82
2018-05-31T14:20:25.993Z,27.82
2018-05-31T14:21:35.939Z,27.79
2018-05-31T14:22:45.361Z,27.87
2018-05-31T14:23:54.798Z,27.85
2018-05-31T14:25:03.973Z,27.84
2018-05-31T14:26:13.653Z,27.85
2018-05-31T14:27:23.073Z,27.92
2018-05-31T14:28:32.623Z,27.82
2018-05-31T14:29:42.051Z,27.84
2018-05-31T14:30:51.477Z,27.85
2018-05-31T14:32:00.916Z,27.82
2018-05-31T14:33:09.826Z,27.79
2018-05-31T14:34:19.513Z,27.81
2018-05-31T14:35:28.946Z,27.88
2018-05-31T14:36:38.648Z,27.84
2018-05-31T14:37:48.337Z,27.9
2018-05-31T14:38:57.762Z,27.88
2018-05-31T14:40:07.217Z,27.92
2018-05-31T14:41:16.651Z,27.9
2018-05-31T14:42:25.846Z,27.92
2018-05-31T14:43:35.820Z,27.92
2018-05-31T14:44:45.236Z,27.87
2018-05-31T14:45:55.288Z,27.94
2018-05-31T14:47:04.506Z,27.96
2018-05-31T14:48:14.445Z,27.92
2018-05-31T14:49:23.891Z,27.88
2018-05-31T14:50:33.132Z,27.94
2018-05-31T14:51:42.325Z,27.88
2018-05-31T14:52:52.093Z,27.92
2018-05-31T14:54:01.312Z,27.96
2018-05-31T14:55:09.986Z,28.02
2018-05-31T14:56:19.199Z,27.99
2018-05-31T14:57:28.400Z,27.99
2018-05-31T14:58:37.857Z,27.94
2018-05-31T14:59:47.030Z,27.93